Hlavní strana
METAR-TAF:

METAR-TAF

Letiště :

Mezinárodní letiště Boryspil

Boryspil, Ukrajina

zeměpisná šířka: 50-20N, zeměpisná délka: 030-58E, výška: 121 m

Aktuální stav počasí

Zpráva byla vytvořena před 34 minutami, v 18:00 UTC
Severoseverovýchodní vítr 2 kt
Teplota 7°C
Vlhkost vzduchu 36%
Tlak 1035 hPa
Viditelnost 10 km a více
Žádná oblačnost pod 1500 m, nevyskytují se cumulonimby.

METAR: UKBB 061800Z 02001MPS CAVOK 07/M07 Q1035 R36R/CLRD// NOSIG

Čas: 21:34 (18:34 UTC)

Předpověď počasí

Zpráva byla vytvořena před 1 hodinou a 33 minutami, v 17:01 UTC
Předpověď platná od 06 v 18 UTC do 07 v 18 UTC
Severoseverozápadní vítr 6 kt
Viditelnost 10 km a více
Polojasno ve výšce 2000 ft
Dočasný
od 06 v 18 UTC do 07 v 06 UTC
vítr z různých směrů 2 kt
Viditelnost: 1600 m
Polojasno ve výšce 700 ft
kouř
Změna
od 07 v 06 UTC do 07 v 07 UTC
Jižní vítr 6 kt s nárazy do 16 kt

TAF: UKBB 061701Z 0618/0718 34003MPS 9999 SCT020 TX15/0712Z TNM03/0704Z TEMPO 0618/0706 VRB01MPS 1600 FU SCT007 BECMG 0706/0707 18003G08MPS

Stav a předpovědi počasí z více než 4 000 letišť (zprávy METAR a TAF).

Červené a žluté tečky na mapě představují dostupné meteorologické stanice.

Když kurzor umístíte na tečku, zobrazí se název stanice.

Pak kliknutím zobrazíte stav a předpověď počasí.

Chcete-li změnit mapu, kliknutím na zelené tlačítko se znaménkem +mapu přiblížíte, kliknutím na zelené tlačítko se znaménkem – mapu oddálíte a kliknutím na zelené šipky přejdete na sousední mapy.


METAR-TAF: